Time,TemperatureF,DewpointF,PressureIn,WindDirection,WindDirectionDegrees,WindSpeedMPH,WindSpeedGustMPH,Humidity,HourlyPrecipIn,Conditions,Clouds,dailyrainin,SolarRadiationWatts/m^2,SoftwareType,DateUTC
2013-11-20 00:01:00,63.5,60.5,29.92,South,182,0.0,4.0,90,0.00,CLR,SCT,0.00,0.0,WeatherDisplay:10.37,2013-11-20 10:01:00,
2013-11-20 00:10:00,63.5,60.5,29.91,South,182,0.0,3.0,90,0.00,CLR,SCT,0.00,0.0,WeatherDisplay:10.37,2013-11-20 10:10:00,
2013-11-20 00:20:00,63.3,60.0,29.91,South,182,0.0,1.0,89,0.00,CLR,SCT,0.00,0.0,WeatherDisplay:10.37,2013-11-20 10:20:00,
2013-11-20 00:31:00,62.9,59.6,29.91,South,182,0.0,4.0,89,0.00,CLR,SCT,0.00,0.0,WeatherDisplay:10.37,2013-11-20 10:31:00,
2013-11-20 00:40:00,62.6,59.0,29.91,South,182,0.0,3.0,88,0.00,CLR,SCT,0.00,0.0,WeatherDisplay:10.37,2013-11-20 10:40:00,
2013-11-20 00:50:00,62.3,58.4,29.91,South,182,0.0,2.0,87,0.00,CLR,SCT,0.00,0.0,WeatherDisplay:10.37,2013-11-20 10:50:00,
2013-11-20 01:01:00,62.1,58.2,29.91,South,182,0.0,0.0,87,0.00,CLR,SCT,0.00,0.0,WeatherDisplay:10.37,2013-11-20 11:01:00,
2013-11-20 01:10:00,61.7,57.8,29.91,South,182,0.0,1.0,87,0.00,CLR,SCT,0.00,0.0,WeatherDisplay:10.37,2013-11-20 11:10:00,
2013-11-20 01:20:00,61.4,57.8,29.91,South,182,0.0,1.0,88,0.00,CLR,SCT,0.00,0.0,WeatherDisplay:10.37,2013-11-20 11:20:00,
2013-11-20 01:31:00,61.6,58.6,29.91,South,182,0.0,1.0,90,0.00,CLR,SCT,0.00,0.0,WeatherDisplay:10.37,2013-11-20 11:31:00,
2013-11-20 01:40:00,61.6,58.3,29.91,South,182,0.0,1.0,89,0.00,CLR,SCT,0.00,0.0,WeatherDisplay:10.37,2013-11-20 11:40:00,
2013-11-20 01:50:00,61.7,58.7,29.90,South,182,0.0,2.0,90,0.00,CLR,SCT,0.00,0.0,WeatherDisplay:10.37,2013-11-20 11:50:00,
2013-11-20 02:01:00,61.7,58.4,29.90,South,182,0.0,3.0,89,0.00,CLR,SCT,0.00,0.0,WeatherDisplay:10.37,2013-11-20 12:01:00,
2013-11-20 02:10:00,61.7,58.1,29.90,South,182,0.0,1.0,88,0.00,CLR,SCT,0.00,0.0,WeatherDisplay:10.37,2013-11-20 12:10:00,
2013-11-20 02:20:00,61.7,57.8,29.89,South,182,0.0,3.0,87,0.00,CLR,SCT,0.00,0.0,WeatherDisplay:10.37,2013-11-20 12:20:00,
2013-11-20 02:31:00,61.6,57.3,29.89,South,182,1.0,3.0,86,0.00,CLR,SCT,0.00,0.0,WeatherDisplay:10.37,2013-11-20 12:31:00,
2013-11-20 02:40:00,61.3,57.4,29.88,South,182,0.0,1.0,87,0.00,CLR,SCT,0.00,0.0,WeatherDisplay:10.37,2013-11-20 12:40:00,
2013-11-20 02:50:00,61.2,57.3,29.88,South,182,0.0,3.0,87,0.00,CLR,SCT,0.00,0.0,WeatherDisplay:10.37,2013-11-20 12:50:00,
2013-11-20 03:01:00,61.4,57.2,29.88,South,182,0.0,3.0,86,0.00,CLR,SCT,0.00,0.0,WeatherDisplay:10.37,2013-11-20 13:01:00,
2013-11-20 03:10:00,61.6,57.0,29.89,South,182,0.0,3.0,85,0.00,CLR,SCT,0.00,0.0,WeatherDisplay:10.37,2013-11-20 13:10:00,
2013-11-20 03:20:00,61.6,57.0,29.89,South,182,0.0,3.0,85,0.00,CLR,SCT,0.00,0.0,WeatherDisplay:10.37,2013-11-20 13:20:00,
2013-11-20 03:31:00,61.6,57.0,29.89,South,182,1.0,3.0,85,0.00,CLR,SCT,0.00,0.0,WeatherDisplay:10.37,2013-11-20 13:31:00,
2013-11-20 03:40:00,61.6,57.0,29.89,South,182,1.0,3.0,85,0.00,CLR,SCT,0.00,0.0,WeatherDisplay:10.37,2013-11-20 13:40:00,
2013-11-20 03:50:00,61.7,57.5,29.88,South,182,2.0,3.0,86,0.00,CLR,SCT,0.00,0.0,WeatherDisplay:10.37,2013-11-20 13:50:00,
2013-11-20 04:01:00,61.9,57.9,29.89,South,182,1.0,3.0,87,0.00,CLR,SCT,0.00,0.0,WeatherDisplay:10.37,2013-11-20 14:01:00,
2013-11-20 04:10:00,62.0,58.1,29.89,South,182,0.0,3.0,87,0.00,CLR,SCT,0.00,0.0,WeatherDisplay:10.37,2013-11-20 14:10:00,
2013-11-20 04:20:00,62.1,58.2,29.89,South,182,0.0,3.0,87,0.00,CLR,SCT,0.00,0.0,WeatherDisplay:10.37,2013-11-20 14:20:00,
2013-11-20 04:31:00,61.9,57.9,29.89,South,182,1.0,3.0,87,0.00,CLR,SCT,0.00,0.0,WeatherDisplay:10.37,2013-11-20 14:31:00,
2013-11-20 04:40:00,61.6,57.7,29.89,South,182,2.0,4.0,87,0.00,CLR,SCT,0.00,0.0,WeatherDisplay:10.37,2013-11-20 14:40:00,
2013-11-20 04:50:00,61.3,57.7,29.89,South,182,0.0,3.0,88,0.00,CLR,SCT,0.00,0.0,WeatherDisplay:10.37,2013-11-20 14:50:00,
2013-11-20 05:01:00,61.3,57.7,29.89,South,182,2.0,4.0,88,0.00,CLR,SCT,0.00,0.0,WeatherDisplay:10.37,2013-11-20 15:01:00,
2013-11-20 05:10:00,61.3,57.7,29.89,South,182,0.0,3.0,88,0.00,CLR,SCT,0.00,0.0,WeatherDisplay:10.37,2013-11-20 15:10:00,
2013-11-20 05:20:00,61.5,57.9,29.89,South,182,0.0,2.0,88,0.00,CLR,SCT,0.00,0.0,WeatherDisplay:10.37,2013-11-20 15:20:00,
2013-11-20 05:50:00,62.6,59.0,29.88,South,182,2.0,4.0,88,0.00,CLR,SCT,0.00,0.0,WeatherDisplay:10.37,2013-11-20 15:50:00,
2013-11-20 06:01:00,62.8,59.2,29.88,South,182,2.0,4.0,88,0.00,CLR,SCT,0.00,0.0,WeatherDisplay:10.37,2013-11-20 16:01:00,
2013-11-20 06:10:00,62.8,59.2,29.89,South,182,2.0,4.0,88,0.00,FEW,SCT,0.00,0.0,WeatherDisplay:10.37,2013-11-20 16:10:00,
2013-11-20 06:21:00,62.6,58.7,29.89,South,182,0.0,4.0,87,0.00,FEW,SCT,0.00,0.0,WeatherDisplay:10.37,2013-11-20 16:21:00,
2013-11-20 06:31:00,62.3,58.4,29.89,South,182,1.0,4.0,87,0.00,FEW,SCT,0.00,0.0,WeatherDisplay:10.37,2013-11-20 16:31:00,
2013-11-20 06:41:00,62.3,57.7,29.89,South,182,1.0,4.0,85,0.00,FEW,SCT,0.00,0.0,WeatherDisplay:10.37,2013-11-20 16:41:00,
2013-11-20 06:51:00,62.2,57.3,29.89,South,182,2.0,4.0,84,0.00,FEW,SCT,0.00,0.4,WeatherDisplay:10.37,2013-11-20 16:51:00,
2013-11-20 07:01:00,62.0,57.1,29.89,South,182,2.0,5.0,84,0.00,FEW,SCT,0.00,1.8,WeatherDisplay:10.37,2013-11-20 17:01:00,
2013-11-20 07:11:00,62.1,57.2,29.90,South,182,2.0,3.0,84,0.00,CLR,SCT,0.00,5.4,WeatherDisplay:10.37,2013-11-20 17:11:00,
2013-11-20 07:21:00,62.3,57.4,29.90,South,182,0.0,4.0,84,0.00,CLR,SCT,0.00,11.3,WeatherDisplay:10.37,2013-11-20 17:21:00,
2013-11-20 07:31:00,62.9,58.0,29.90,South,182,0.0,4.0,84,0.00,CLR,SCT,0.00,18.1,WeatherDisplay:10.37,2013-11-20 17:31:00,
2013-11-20 07:41:00,63.9,58.7,29.90,South,183,0.0,3.0,83,0.00,CLR,SCT,0.00,25.9,WeatherDisplay:10.37,2013-11-20 17:41:00,
2013-11-20 07:51:00,65.2,59.6,29.91,South,183,2.0,3.0,82,0.00,CLR,SCT,0.00,41.6,WeatherDisplay:10.37,2013-11-20 17:51:00,
2013-11-20 08:01:00,66.7,60.6,29.91,South,183,2.0,3.0,81,0.00,CLR,SCT,0.00,56.2,WeatherDisplay:10.37,2013-11-20 18:01:00,
2013-11-20 08:11:00,67.8,61.8,29.91,South,183,0.0,3.0,81,0.00,CLR,SCT,0.00,80.4,WeatherDisplay:10.37,2013-11-20 18:11:00,
2013-11-20 08:21:00,69.2,62.0,29.91,South,183,0.0,1.0,78,0.00,CLR,SCT,0.00,103.1,WeatherDisplay:10.37,2013-11-20 18:21:00,
2013-11-20 08:31:00,70.4,62.5,29.91,South,183,0.0,3.0,76,0.00,CLR,SCT,0.00,110.3,WeatherDisplay:10.37,2013-11-20 18:31:00,
2013-11-20 08:41:00,71.3,62.6,29.92,South,183,1.0,5.0,74,0.00,CLR,SCT,0.00,138.6,WeatherDisplay:10.37,2013-11-20 18:41:00,
2013-11-20 08:51:00,72.1,62.2,29.92,South,183,2.0,3.0,71,0.00,CLR,SCT,0.00,212.1,WeatherDisplay:10.37,2013-11-20 18:51:00,
2013-11-20 09:01:00,73.8,62.6,29.92,South,183,0.0,4.0,68,0.00,CLR,SCT,0.00,197.5,WeatherDisplay:10.37,2013-11-20 19:01:00,
2013-11-20 09:11:00,75.4,62.4,29.92,South,183,0.0,2.0,64,0.00,CLR,SCT,0.00,239.7,WeatherDisplay:10.37,2013-11-20 19:11:00,
2013-11-20 09:21:00,76.7,60.3,29.92,South,183,0.0,1.0,57,0.00,CLR,SCT,0.00,189.5,WeatherDisplay:10.37,2013-11-20 19:21:00,
2013-11-20 09:31:00,77.6,61.2,29.92,South,183,0.0,0.0,57,0.00,CLR,SCT,0.00,242.3,WeatherDisplay:10.37,2013-11-20 19:31:00,
2013-11-20 09:41:00,77.9,62.0,29.92,South,183,0.0,2.0,58,0.00,CLR,SCT,0.00,307.8,WeatherDisplay:10.37,2013-11-20 19:41:00,
2013-11-20 09:51:00,77.8,64.6,29.92,South,183,1.0,5.0,64,0.00,CLR,SCT,0.00,322.1,WeatherDisplay:10.37,2013-11-20 19:51:00,
2013-11-20 10:01:00,77.9,64.7,29.92,South,183,0.0,1.0,64,0.00,CLR,SCT,0.00,429.7,WeatherDisplay:10.37,2013-11-20 20:01:00,
2013-11-20 10:11:00,78.5,63.0,29.92,South,183,0.0,1.0,59,0.00,FEW,SCT,0.00,438.8,WeatherDisplay:10.37,2013-11-20 20:11:00,
2013-11-20 10:21:00,79.0,63.0,29.91,South,183,0.0,1.0,58,0.00,FEW,SCT,0.00,456.4,WeatherDisplay:10.37,2013-11-20 20:21:00,
2013-11-20 10:31:00,79.6,63.1,29.91,West,272,1.0,4.0,57,0.00,FEW,SCT,0.00,496.6,WeatherDisplay:10.37,2013-11-20 20:31:00,
2013-11-20 10:41:00,80.4,64.8,29.91,WNW,289,2.0,5.0,59,0.00,FEW,SCT,0.00,421.9,WeatherDisplay:10.37,2013-11-20 20:41:00,
2013-11-20 10:51:00,80.2,66.0,29.91,WNW,302,3.0,6.0,62,0.00,FEW,SCT,0.00,472.6,WeatherDisplay:10.37,2013-11-20 20:51:00,
2013-11-20 11:01:00,79.4,67.1,29.90,WNW,291,1.0,7.0,66,0.00,FEW,SCT,0.00,421.3,WeatherDisplay:10.37,2013-11-20 21:01:00,
2013-11-20 11:11:00,78.9,67.0,29.90,West,279,0.0,6.0,67,0.00,FEW,SCT,0.00,550.9,WeatherDisplay:10.37,2013-11-20 21:11:00,
2013-11-20 11:21:00,78.7,67.7,29.89,WNW,284,3.0,6.0,69,0.00,FEW,SCT,0.00,425.4,WeatherDisplay:10.37,2013-11-20 21:21:00,
2013-11-20 11:31:00,78.6,68.0,29.89,WNW,289,0.0,5.0,70,0.00,FEW,SCT,0.00,652.9,WeatherDisplay:10.37,2013-11-20 21:31:00,
2013-11-20 11:41:00,78.8,67.8,29.88,WNW,288,2.0,5.0,69,0.00,FEW,SCT,0.00,475.4,WeatherDisplay:10.37,2013-11-20 21:41:00,
2013-11-20 11:51:00,78.4,68.2,29.88,West,270,0.0,6.0,71,0.00,FEW,SCT,0.00,672.1,WeatherDisplay:10.37,2013-11-20 21:51:00,
2013-11-20 12:01:00,79.0,68.8,29.88,West,277,2.0,9.0,71,0.00,FEW,SCT,0.00,1010.3,WeatherDisplay:10.37,2013-11-20 22:01:00,
2013-11-20 12:11:00,79.8,69.1,29.87,WNW,298,3.0,7.0,70,0.00,FEW,SCT,0.00,796.1,WeatherDisplay:10.37,2013-11-20 22:11:00,
2013-11-20 12:21:00,79.8,68.3,29.87,WNW,289,2.0,9.0,68,0.00,FEW,SCT,0.00,905.8,WeatherDisplay:10.37,2013-11-20 22:21:00,
2013-11-20 12:31:00,80.2,67.8,29.86,WNW,299,1.0,6.0,66,0.00,FEW,SCT,0.00,1192.3,WeatherDisplay:10.37,2013-11-20 22:31:00,
2013-11-20 12:41:00,80.7,67.8,29.86,NW,307,3.0,6.0,65,0.00,FEW,SCT,0.00,668.4,WeatherDisplay:10.37,2013-11-20 22:41:00,
2013-11-20 12:51:00,80.5,66.7,29.85,NW,312,3.0,7.0,63,0.00,FEW,SCT,0.00,487.8,WeatherDisplay:10.37,2013-11-20 22:51:00,
2013-11-20 13:01:00,80.3,65.6,29.85,WNW,301,2.0,6.0,61,0.00,FEW,SCT,0.00,521.1,WeatherDisplay:10.37,2013-11-20 23:01:00,
2013-11-20 13:11:00,80.1,66.8,29.84,WNW,299,3.0,5.0,64,0.00,FEW,SCT,0.00,757.4,WeatherDisplay:10.37,2013-11-20 23:11:00,
2013-11-20 13:21:00,80.5,67.6,29.84,NW,315,2.0,7.0,65,0.00,FEW,SCT,0.00,1006.9,WeatherDisplay:10.37,2013-11-20 23:21:00,
2013-11-20 13:31:00,80.8,66.6,29.84,NW,319,2.0,6.0,62,0.00,FEW,SCT,0.00,383.2,WeatherDisplay:10.37,2013-11-20 23:31:00,
2013-11-20 13:41:00,80.3,66.1,29.84,NW,311,2.0,6.0,62,0.00,FEW,SCT,0.00,638.0,WeatherDisplay:10.37,2013-11-20 23:41:00,
2013-11-20 13:51:00,80.8,65.6,29.84,WNW,298,1.0,6.0,60,0.00,FEW,SCT,0.00,742.0,WeatherDisplay:10.37,2013-11-20 23:51:00,
2013-11-20 14:01:00,81.8,64.1,29.84,WNW,291,3.0,6.0,55,0.00,FEW,SCT,0.00,492.0,WeatherDisplay:10.37,2013-11-21 00:01:00,
2013-11-20 14:11:00,82.0,64.8,29.84,West,273,5.0,7.0,56,0.00,FEW,SCT,0.00,473.1,WeatherDisplay:10.37,2013-11-21 00:11:00,
2013-11-20 14:21:00,82.6,64.3,29.84,WNW,303,3.0,7.0,54,0.00,FEW,SCT,0.00,460.3,WeatherDisplay:10.37,2013-11-21 00:21:00,
2013-11-20 14:31:00,83.3,65.4,29.84,NW,307,3.0,9.0,55,0.00,FEW,SCT,0.00,441.1,WeatherDisplay:10.37,2013-11-21 00:31:00,
2013-11-20 14:41:00,83.3,65.4,29.84,NW,304,5.0,9.0,55,0.00,FEW,SCT,0.00,458.2,WeatherDisplay:10.37,2013-11-21 00:41:00,
2013-11-20 14:51:00,81.8,68.0,29.84,WSW,258,8.0,12.0,63,0.00,FEW,SCT,0.00,160.3,WeatherDisplay:10.37,2013-11-21 00:51:00,
2013-11-20 15:01:00,79.3,67.8,29.85,WSW,247,7.0,13.0,68,0.00,FEW,SCT,0.00,161.1,WeatherDisplay:10.37,2013-11-21 01:01:00,
2013-11-20 15:11:00,78.5,67.5,29.84,WSW,257,5.0,12.0,69,0.00,SCT,SCT,0.00,244.1,WeatherDisplay:10.37,2013-11-21 01:11:00,
2013-11-20 15:21:00,78.1,67.9,29.84,West,263,6.0,9.0,71,0.00,SCT,SCT,0.00,97.7,WeatherDisplay:10.37,2013-11-21 01:21:00,
2013-11-20 15:31:00,77.0,67.6,29.84,West,268,6.0,9.0,73,0.00,SCT,SCT,0.00,89.1,WeatherDisplay:10.37,2013-11-21 01:31:00,
2013-11-20 15:41:00,76.4,67.5,29.84,West,262,3.0,8.0,74,0.00,SCT,SCT,0.00,74.2,WeatherDisplay:10.37,2013-11-21 01:41:00,
2013-11-20 15:51:00,76.1,67.6,29.85,WNW,282,3.0,7.0,75,0.00,SCT,SCT,0.00,82.3,WeatherDisplay:10.37,2013-11-21 01:51:00,
2013-11-20 16:01:00,75.8,67.7,29.85,West,260,3.0,7.0,76,0.00,SCT,SCT,0.00,68.4,WeatherDisplay:10.37,2013-11-21 02:01:00,
2013-11-20 16:11:00,75.4,67.3,29.84,WSW,249,0.0,6.0,76,0.00,BKN,SCT,0.00,40.7,WeatherDisplay:10.37,2013-11-21 02:11:00,
2013-11-20 16:21:00,75.1,66.6,29.84,WSW,249,0.0,2.0,75,0.00,BKN,SCT,0.00,26.2,WeatherDisplay:10.37,2013-11-21 02:21:00,
2013-11-20 16:31:00,74.8,66.3,29.84,WSW,249,0.0,1.0,75,0.00,BKN,SCT,0.00,20.2,WeatherDisplay:10.37,2013-11-21 02:31:00,
2013-11-20 16:41:00,74.6,66.5,29.85,WSW,249,0.0,4.0,76,0.00,BKN,SCT,0.00,12.5,WeatherDisplay:10.37,2013-11-21 02:41:00,
2013-11-20 16:51:00,74.2,66.2,29.86,WSW,249,2.0,4.0,76,0.00,BKN,SCT,0.00,10.9,WeatherDisplay:10.37,2013-11-21 02:51:00,
2013-11-20 17:01:00,73.9,66.6,29.86,WSW,249,3.0,5.0,78,0.00,BKN,SCT,0.00,9.8,WeatherDisplay:10.37,2013-11-21 03:01:00,
2013-11-20 17:11:00,73.6,67.1,29.86,WSW,249,0.0,5.0,80,0.00,BKN,SCT,0.00,4.3,WeatherDisplay:10.37,2013-11-21 03:11:00,
2013-11-20 17:21:00,73.3,66.8,29.86,WSW,249,0.0,3.0,80,0.00,BKN,SCT,0.00,1.2,WeatherDisplay:10.37,2013-11-21 03:21:00,
2013-11-20 17:31:00,72.9,66.7,29.87,WSW,249,0.0,4.0,81,0.00,BKN,SCT,0.00,0.3,WeatherDisplay:10.37,2013-11-21 03:31:00,
2013-11-20 17:41:00,72.6,66.8,29.87,WSW,245,2.0,5.0,82,0.00,BKN,SCT,0.00,0.0,WeatherDisplay:10.37,2013-11-21 03:41:00,
2013-11-20 17:51:00,72.3,66.5,29.87,WSW,242,0.0,3.0,82,0.00,BKN,SCT,0.00,0.0,WeatherDisplay:10.37,2013-11-21 03:51:00,
2013-11-20 18:01:00,72.0,66.2,29.88,SW,218,1.0,5.0,82,0.00,BKN,SCT,0.00,0.0,WeatherDisplay:10.37,2013-11-21 04:01:00,
2013-11-20 18:10:00,71.7,65.9,29.88,SSW,212,0.0,3.0,82,0.00,SCT,SCT,0.00,0.0,WeatherDisplay:10.37,2013-11-21 04:10:00,
2013-11-20 18:20:00,71.3,65.2,29.88,SSW,212,0.0,1.0,81,0.00,SCT,SCT,0.00,0.0,WeatherDisplay:10.37,2013-11-21 04:20:00,
2013-11-20 18:31:00,71.0,64.5,29.88,SSW,212,0.0,1.0,80,0.00,SCT,SCT,0.00,0.0,WeatherDisplay:10.37,2013-11-21 04:31:00,
2013-11-20 18:40:00,70.7,63.9,29.88,SSW,211,2.0,4.0,79,0.00,SCT,SCT,0.00,0.0,WeatherDisplay:10.37,2013-11-21 04:40:00,
2013-11-20 18:50:00,70.5,63.3,29.88,SSW,209,1.0,3.0,78,0.00,SCT,SCT,0.00,0.0,WeatherDisplay:10.37,2013-11-21 04:50:00,
2013-11-20 19:01:00,70.3,62.7,29.88,SSW,197,2.0,4.0,77,0.00,SCT,SCT,0.00,0.0,WeatherDisplay:10.37,2013-11-21 05:01:00,
2013-11-20 19:10:00,70.1,62.2,29.89,SSW,194,0.0,3.0,76,0.00,CLR,SCT,0.00,0.0,WeatherDisplay:10.37,2013-11-21 05:10:00,
2013-11-20 19:20:00,70.0,62.4,29.89,SSW,194,0.0,0.0,77,0.00,CLR,SCT,0.00,0.0,WeatherDisplay:10.37,2013-11-21 05:20:00,
2013-11-20 19:31:00,69.7,62.2,29.90,SSW,194,0.0,1.0,77,0.00,CLR,SCT,0.00,0.0,WeatherDisplay:10.37,2013-11-21 05:31:00,
2013-11-20 19:40:00,69.4,62.2,29.90,SSW,194,0.0,1.0,78,0.00,CLR,SCT,0.00,0.0,WeatherDisplay:10.37,2013-11-21 05:40:00,
2013-11-20 19:50:00,69.3,62.1,29.90,SSW,198,0.0,4.0,78,0.00,CLR,SCT,0.00,0.0,WeatherDisplay:10.37,2013-11-21 05:50:00,
2013-11-20 20:01:00,69.1,62.3,29.92,SSW,199,0.0,1.0,79,0.00,CLR,SCT,0.00,0.0,WeatherDisplay:10.37,2013-11-21 06:01:00,
2013-11-20 20:10:00,68.8,62.4,29.91,SSW,199,0.0,1.0,80,0.00,CLR,SCT,0.00,0.0,WeatherDisplay:10.37,2013-11-21 06:10:00,
2013-11-20 20:20:00,68.5,62.1,29.92,SSW,199,0.0,0.0,80,0.00,CLR,SCT,0.00,0.0,WeatherDisplay:10.37,2013-11-21 06:20:00,
2013-11-20 20:31:00,68.3,62.2,29.92,SSW,199,0.0,1.0,81,0.00,CLR,SCT,0.00,0.0,WeatherDisplay:10.37,2013-11-21 06:31:00,
2013-11-20 20:40:00,68.1,62.0,29.92,SSW,199,0.0,1.0,81,0.00,CLR,SCT,0.00,0.0,WeatherDisplay:10.37,2013-11-21 06:40:00,
2013-11-20 20:50:00,67.9,61.9,29.93,SSW,199,0.0,0.0,81,0.00,CLR,SCT,0.00,0.0,WeatherDisplay:10.37,2013-11-21 06:50:00,
2013-11-20 21:01:00,67.6,61.9,29.94,SSW,199,0.0,0.0,82,0.00,CLR,SCT,0.00,0.0,WeatherDisplay:10.37,2013-11-21 07:01:00,
2013-11-20 21:10:00,67.4,62.1,29.94,SSW,199,0.0,0.0,83,0.00,BKN,SCT,0.00,0.0,WeatherDisplay:10.37,2013-11-21 07:10:00,
2013-11-20 21:20:00,67.4,62.4,29.94,SSW,199,0.0,0.0,84,0.00,BKN,SCT,0.00,0.0,WeatherDisplay:10.37,2013-11-21 07:20:00,
2013-11-20 21:30:00,67.4,62.4,29.94,SSW,199,0.0,0.0,84,0.00,BKN,SCT,0.00,0.0,WeatherDisplay:10.37,2013-11-21 07:30:00,
2013-11-20 21:40:00,67.5,61.8,29.94,SSW,199,0.0,0.0,82,0.00,BKN,SCT,0.00,0.0,WeatherDisplay:10.37,2013-11-21 07:40:00,
2013-11-20 21:50:00,67.5,61.5,29.94,SSW,199,0.0,3.0,81,0.00,BKN,SCT,0.00,0.0,WeatherDisplay:10.37,2013-11-21 07:50:00,
2013-11-20 22:00:00,67.6,61.6,29.93,SSW,199,0.0,3.0,81,0.00,BKN,SCT,0.00,0.0,WeatherDisplay:10.37,2013-11-21 08:00:00,
2013-11-20 22:10:00,67.5,61.5,29.93,SSW,199,0.0,1.0,81,0.00,FEW,SCT,0.00,0.0,WeatherDisplay:10.37,2013-11-21 08:10:00,
2013-11-20 22:20:00,67.3,61.6,29.94,SSW,199,0.0,1.0,82,0.00,FEW,SCT,0.00,0.0,WeatherDisplay:10.37,2013-11-21 08:20:00,
2013-11-20 22:30:00,67.1,61.4,29.94,SSW,199,0.0,0.0,82,0.00,FEW,SCT,0.00,0.0,WeatherDisplay:10.37,2013-11-21 08:30:00,
2013-11-20 22:40:00,66.9,61.2,29.94,SSW,199,0.0,1.0,82,0.00,FEW,SCT,0.00,0.0,WeatherDisplay:10.37,2013-11-21 08:40:00,
2013-11-20 22:50:00,66.7,61.4,29.94,SSW,199,0.0,1.0,83,0.00,FEW,SCT,0.00,0.0,WeatherDisplay:10.37,2013-11-21 08:50:00,
2013-11-20 23:00:00,66.6,61.6,29.94,SSW,199,0.0,2.0,84,0.00,FEW,SCT,0.00,0.0,WeatherDisplay:10.37,2013-11-21 09:00:00,
2013-11-20 23:10:00,66.5,61.5,29.94,SSW,199,0.0,3.0,84,0.00,CLR,SCT,0.00,0.0,WeatherDisplay:10.37,2013-11-21 09:10:00,
2013-11-20 23:20:00,66.6,61.6,29.94,SSW,199,0.0,1.0,84,0.00,CLR,SCT,0.00,0.0,WeatherDisplay:10.37,2013-11-21 09:20:00,
2013-11-20 23:30:00,66.8,61.5,29.94,SSW,199,0.0,3.0,83,0.00,CLR,SCT,0.00,0.0,WeatherDisplay:10.37,2013-11-21 09:30:00,
2013-11-20 23:40:00,66.8,61.5,29.94,SSW,199,0.0,3.0,83,0.00,CLR,SCT,0.00,0.0,WeatherDisplay:10.37,2013-11-21 09:40:00,
2013-11-20 23:50:00,66.7,61.4,29.94,SSW,199,0.0,1.0,83,0.00,CLR,SCT,0.00,0.0,WeatherDisplay:10.37,2013-11-21 09:50:00,